createdAt,value
2022-08-19T00:02:17.505Z,14.82
2022-08-19T00:04:48.195Z,15.25
2022-08-19T00:07:16.213Z,15.23
2022-08-19T00:09:43.699Z,15.15
2022-08-19T00:12:11.967Z,14.52
2022-08-19T00:14:40.413Z,14.52
2022-08-19T00:17:10.012Z,14.75
2022-08-19T00:19:38.343Z,14.88
2022-08-19T00:22:06.932Z,15.15
2022-08-19T00:24:34.580Z,14.25
2022-08-19T00:27:25.768Z,15.23
2022-08-19T00:29:52.565Z,14.02
2022-08-19T00:32:21.580Z,14.05
2022-08-19T00:34:49.262Z,15.10
2022-08-19T00:37:16.931Z,14.00
2022-08-19T00:39:44.605Z,14.00
2022-08-19T00:42:15.825Z,13.43
2022-08-19T00:44:44.331Z,13.30
2022-08-19T00:47:14.110Z,13.43
2022-08-19T00:49:48.822Z,12.68
2022-08-19T00:52:20.797Z,13.27
2022-08-19T00:54:52.629Z,13.75
2022-08-19T00:57:36.161Z,13.05
2022-08-19T01:00:09.798Z,12.40
2022-08-19T01:02:37.513Z,12.48
2022-08-19T01:05:09.338Z,11.70
2022-08-19T01:07:39.941Z,11.60
2022-08-19T01:10:11.606Z,12.05
2022-08-19T01:12:40.417Z,11.95
2022-08-19T01:15:11.157Z,12.15
2022-08-19T01:17:41.012Z,12.38
2022-08-19T01:20:13.349Z,12.13
2022-08-19T01:22:48.818Z,12.63
2022-08-19T01:25:18.789Z,12.32
2022-08-19T01:27:50.064Z,12.90
2022-08-19T01:30:26.556Z,12.25
2022-08-19T01:32:55.204Z,12.90
2022-08-19T01:35:25.243Z,11.65
2022-08-19T01:37:56.599Z,11.63
2022-08-19T01:40:27.202Z,11.98
2022-08-19T01:42:55.288Z,12.00
2022-08-19T01:45:25.233Z,11.98
2022-08-19T01:48:01.556Z,12.10
2022-08-19T01:50:32.467Z,12.93
2022-08-19T01:53:06.014Z,12.45
2022-08-19T01:55:40.791Z,11.77
2022-08-19T01:58:13.234Z,12.50
2022-08-19T02:00:41.518Z,12.38
2022-08-19T02:03:10.341Z,12.43
2022-08-19T02:05:38.476Z,12.13
2022-08-19T02:08:06.533Z,12.00
2022-08-19T02:10:33.983Z,12.15
2022-08-19T02:13:01.404Z,11.80
2022-08-19T02:15:28.851Z,12.55
2022-08-19T02:17:56.513Z,13.07
2022-08-19T02:20:23.927Z,12.50
2022-08-19T02:22:51.635Z,12.60
2022-08-19T02:25:19.162Z,12.75
2022-08-19T02:27:46.781Z,13.38
2022-08-19T02:30:17.042Z,12.52
2022-08-19T02:32:45.148Z,12.68
2022-08-19T02:35:14.999Z,12.88
2022-08-19T02:38:02.576Z,12.55
2022-08-19T02:40:34.973Z,13.05
2022-08-19T02:43:08.640Z,12.23
2022-08-19T02:45:41.455Z,13.45
2022-08-19T02:48:14.925Z,12.60
2022-08-19T02:50:54.036Z,12.65
2022-08-19T02:53:26.173Z,12.93
2022-08-19T02:55:53.950Z,12.73
2022-08-19T02:58:22.660Z,12.75
2022-08-19T03:00:53.252Z,13.02
2022-08-19T03:03:20.971Z,13.07
2022-08-19T03:05:56.907Z,13.45
2022-08-19T03:08:26.910Z,14.35
2022-08-19T03:10:55.034Z,13.75
2022-08-19T03:13:22.930Z,13.20
2022-08-19T03:15:50.767Z,13.35
2022-08-19T03:18:18.686Z,13.07
2022-08-19T03:20:48.926Z,13.07
2022-08-19T03:23:17.793Z,12.90
2022-08-19T03:25:47.816Z,13.48
2022-08-19T03:28:30.760Z,13.48
2022-08-19T03:31:01.589Z,13.15
2022-08-19T03:33:33.274Z,13.52
2022-08-19T03:36:17.542Z,12.52
2022-08-19T03:38:49.420Z,13.40
2022-08-19T03:41:26.872Z,13.30
2022-08-19T03:44:19.485Z,13.27
2022-08-19T03:46:49.558Z,13.95
2022-08-19T03:49:18.953Z,13.02
2022-08-19T03:51:49.279Z,14.43
2022-08-19T03:54:19.773Z,13.63
2022-08-19T03:56:49.683Z,13.23
2022-08-19T03:59:21.331Z,13.27
2022-08-19T04:01:48.747Z,13.05
2022-08-19T04:04:16.194Z,13.25
2022-08-19T04:06:48.371Z,13.35
2022-08-19T04:09:16.242Z,13.15
2022-08-19T04:11:50.670Z,13.23
2022-08-19T04:14:20.494Z,12.90
2022-08-19T04:16:49.324Z,13.38
2022-08-19T04:19:18.265Z,13.55
2022-08-19T04:21:48.947Z,12.80
2022-08-19T04:24:18.779Z,13.35
2022-08-19T04:26:47.621Z,12.68
2022-08-19T04:29:26.494Z,12.25
2022-08-19T04:31:55.959Z,13.30
2022-08-19T04:34:26.798Z,12.85
2022-08-19T04:36:56.206Z,12.75
2022-08-19T04:39:49.273Z,12.55
2022-08-19T04:42:38.081Z,12.43
2022-08-19T04:45:09.218Z,12.45
2022-08-19T04:47:47.780Z,11.95
2022-08-19T04:50:27.505Z,12.70
2022-08-19T04:52:57.617Z,12.40
2022-08-19T04:55:26.946Z,12.80
2022-08-19T04:57:55.747Z,12.15
2022-08-19T05:00:23.761Z,13.00
2022-08-19T05:02:51.696Z,12.43
2022-08-19T05:05:19.728Z,12.10
2022-08-19T05:07:48.069Z,12.15
2022-08-19T05:10:33.268Z,12.18
2022-08-19T05:13:22.769Z,12.13
2022-08-19T05:16:00.663Z,11.73
2022-08-19T05:19:15.603Z,12.52
2022-08-19T05:22:03.136Z,11.63
2022-08-19T05:25:02.535Z,11.82
2022-08-19T05:27:31.166Z,11.88
2022-08-19T05:30:01.585Z,12.07
2022-08-19T05:32:30.860Z,11.82
2022-08-19T05:35:09.312Z,12.02
2022-08-19T05:37:37.386Z,11.93
2022-08-19T05:40:06.018Z,11.57
2022-08-19T05:42:35.164Z,11.25
2022-08-19T05:45:03.256Z,10.85
2022-08-19T05:47:42.084Z,11.07
2022-08-19T05:50:11.724Z,11.63
2022-08-19T05:52:50.218Z,11.55
2022-08-19T05:55:21.304Z,11.20
2022-08-19T05:58:10.865Z,11.80
2022-08-19T06:00:40.284Z,11.35
2022-08-19T06:03:13.892Z,11.70
2022-08-19T06:05:50.206Z,11.70
2022-08-19T06:08:20.677Z,11.50
2022-08-19T06:11:16.264Z,11.60
2022-08-19T06:13:45.413Z,11.63
2022-08-19T06:16:15.628Z,12.40
2022-08-19T06:18:46.180Z,11.48
2022-08-19T06:24:12.740Z,10.90
2022-08-19T06:26:43.339Z,11.77
2022-08-19T06:29:23.835Z,11.75
2022-08-19T06:35:04.910Z,11.73
2022-08-19T06:40:24.149Z,11.57
2022-08-19T06:43:03.836Z,11.48
2022-08-19T06:45:38.245Z,12.05
2022-08-19T06:48:11.761Z,11.80
2022-08-19T06:50:41.999Z,11.75
2022-08-19T06:53:31.426Z,11.75
2022-08-19T06:56:03.433Z,12.07
2022-08-19T06:58:34.365Z,11.80
2022-08-19T07:01:14.624Z,11.68
2022-08-19T07:04:17.687Z,11.70
2022-08-19T07:06:55.392Z,11.85
2022-08-19T07:09:24.198Z,11.23
2022-08-19T07:11:59.515Z,12.05
2022-08-19T07:14:31.723Z,11.35
2022-08-19T07:20:09.322Z,11.52
2022-08-19T07:22:43.310Z,11.38
2022-08-19T07:25:17.529Z,11.10
2022-08-19T07:32:22.361Z,10.98
2022-08-19T07:35:01.133Z,11.15
2022-08-19T07:37:33.129Z,10.88
2022-08-19T07:40:33.940Z,10.43
2022-08-19T07:43:34.976Z,10.68
2022-08-19T07:48:50.428Z,10.55
2022-08-19T07:51:29.535Z,10.98
2022-08-19T07:54:08.352Z,10.45
2022-08-19T07:57:36.370Z,9.25
2022-08-19T08:00:12.262Z,10.23
2022-08-19T08:05:53.585Z,10.60
2022-08-19T08:09:16.576Z,10.43
2022-08-19T08:11:57.683Z,10.30
2022-08-19T08:14:45.867Z,9.63
2022-08-19T08:17:31.085Z,10.30
2022-08-19T08:20:21.901Z,9.52
2022-08-19T08:23:10.192Z,10.40
2022-08-19T08:25:42.063Z,10.40
2022-08-19T08:28:17.520Z,10.50
2022-08-19T08:30:58.887Z,9.77
2022-08-19T08:33:36.272Z,9.52
2022-08-19T08:36:10.158Z,9.65
2022-08-19T08:38:42.817Z,10.23
2022-08-19T08:46:52.769Z,9.32
2022-08-19T08:49:52.385Z,9.45
2022-08-19T08:52:33.301Z,10.20
2022-08-19T08:55:10.230Z,9.98
2022-08-19T08:57:43.579Z,10.52
2022-08-19T09:00:19.580Z,10.50
2022-08-19T09:02:50.998Z,9.75
2022-08-19T09:05:33.132Z,10.05
2022-08-19T09:08:31.956Z,9.68
2022-08-19T09:14:06.773Z,9.82
2022-08-19T09:16:41.497Z,10.68
2022-08-19T09:19:14.793Z,10.20
2022-08-19T09:21:53.618Z,10.18
2022-08-19T09:29:59.355Z,10.23
2022-08-19T09:32:30.812Z,10.18
2022-08-19T09:35:03.607Z,10.32
2022-08-19T09:37:43.223Z,10.70
2022-08-19T09:40:17.834Z,9.93
2022-08-19T09:42:52.572Z,10.07
2022-08-19T09:45:24.233Z,10.25
2022-08-19T09:47:55.192Z,10.57
2022-08-19T09:50:32.201Z,10.02
2022-08-19T09:53:04.595Z,9.73
2022-08-19T09:55:34.847Z,10.15
2022-08-19T09:58:10.553Z,10.23
2022-08-19T10:00:44.765Z,9.93
2022-08-19T10:03:18.833Z,9.80
2022-08-19T10:05:50.412Z,9.50
2022-08-19T10:08:29.048Z,10.02
2022-08-19T10:10:58.955Z,10.38
2022-08-19T10:13:30.410Z,9.80
2022-08-19T10:16:07.578Z,9.35
2022-08-19T10:21:33.650Z,9.27
2022-08-19T10:24:05.699Z,8.30
2022-08-19T10:26:38.341Z,8.93
2022-08-19T10:29:09.229Z,8.55
2022-08-19T10:32:00.636Z,8.70
2022-08-19T10:34:28.489Z,8.68
2022-08-19T10:37:01.341Z,8.38
2022-08-19T10:39:32.719Z,8.50
2022-08-19T10:42:07.331Z,8.57
2022-08-19T10:44:36.725Z,8.55
2022-08-19T10:47:05.343Z,8.02
2022-08-19T10:50:04.377Z,7.78
2022-08-19T10:53:46.980Z,7.90
2022-08-19T10:57:07.550Z,8.40
2022-08-19T10:59:37.198Z,8.02
2022-08-19T11:02:08.470Z,7.70
2022-08-19T11:04:36.437Z,7.70
2022-08-19T11:07:06.384Z,7.57
2022-08-19T11:09:43.233Z,8.00
2022-08-19T11:12:13.420Z,7.57
2022-08-19T11:14:42.905Z,7.57
2022-08-19T11:17:32.873Z,7.38
2022-08-19T11:20:04.360Z,7.70
2022-08-19T11:22:40.919Z,7.68
2022-08-19T11:25:44.619Z,7.47
2022-08-19T11:28:12.835Z,7.60
2022-08-19T11:30:41.088Z,7.15
2022-08-19T11:33:08.941Z,7.45
2022-08-19T11:35:42.669Z,7.25
2022-08-19T11:38:10.510Z,6.93
2022-08-19T11:40:38.681Z,7.68
2022-08-19T11:43:06.288Z,7.07
2022-08-19T11:45:34.266Z,7.20
2022-08-19T11:48:02.001Z,7.53
2022-08-19T11:50:29.434Z,7.30
2022-08-19T11:52:58.147Z,7.20
2022-08-19T11:55:25.921Z,6.68
2022-08-19T11:57:53.572Z,7.20
2022-08-19T12:00:21.232Z,7.90
2022-08-19T12:02:48.828Z,7.97
2022-08-19T12:05:16.345Z,7.35
2022-08-19T12:07:44.928Z,7.82
2022-08-19T12:10:12.824Z,7.03
2022-08-19T12:12:43.787Z,7.82
2022-08-19T12:15:13.903Z,7.03
2022-08-19T12:17:42.844Z,7.80
2022-08-19T12:20:12.411Z,7.63
2022-08-19T12:22:42.223Z,7.32
2022-08-19T12:25:11.902Z,6.47
2022-08-19T12:27:46.844Z,6.60
2022-08-19T12:30:17.141Z,7.53
2022-08-19T12:32:44.628Z,6.95
2022-08-19T12:35:12.837Z,7.00
2022-08-19T12:37:43.510Z,6.57
2022-08-19T12:40:12.892Z,6.90
2022-08-19T12:42:44.545Z,7.32
2022-08-19T12:45:13.829Z,6.95
2022-08-19T12:47:42.288Z,7.65
2022-08-19T12:50:13.850Z,7.65
2022-08-19T12:52:43.472Z,7.60
2022-08-19T12:55:12.724Z,6.97
2022-08-19T12:57:40.305Z,7.45
2022-08-19T13:00:12.879Z,7.63
2022-08-19T13:02:42.951Z,7.70
2022-08-19T13:05:13.126Z,7.85
2022-08-19T13:07:41.547Z,8.00
2022-08-19T13:10:10.980Z,7.20
2022-08-19T13:12:38.953Z,7.30
2022-08-19T13:15:10.764Z,7.40
2022-08-19T13:17:40.500Z,7.78
2022-08-19T13:20:10.623Z,8.07
2022-08-19T13:25:10.616Z,7.63
2022-08-19T13:27:39.297Z,7.22
2022-08-19T13:30:28.623Z,8.20
2022-08-19T13:33:15.914Z,7.10
2022-08-19T13:35:49.802Z,7.47
2022-08-19T13:38:23.224Z,7.22
2022-08-19T13:40:53.649Z,7.50
2022-08-19T13:43:23.877Z,7.63
2022-08-19T13:45:56.457Z,7.13
2022-08-19T13:48:25.414Z,8.05
2022-08-19T13:50:52.949Z,7.43
2022-08-19T13:53:20.499Z,7.20
2022-08-19T13:55:48.272Z,8.07
2022-08-19T13:58:15.812Z,7.57
2022-08-19T14:00:47.212Z,7.63
2022-08-19T14:03:14.886Z,7.05
2022-08-19T14:05:42.711Z,7.65
2022-08-19T14:08:10.437Z,7.65
2022-08-19T14:10:37.995Z,7.45
2022-08-19T14:13:05.467Z,7.55
2022-08-19T14:15:33.417Z,7.65
2022-08-19T14:18:00.961Z,7.57
2022-08-19T14:20:28.423Z,8.07
2022-08-19T14:22:56.706Z,7.90
2022-08-19T14:25:29.084Z,7.95
2022-08-19T14:27:57.545Z,8.23
2022-08-19T14:30:32.159Z,7.90
2022-08-19T14:33:01.876Z,7.57
2022-08-19T14:35:34.951Z,8.05
2022-08-19T14:38:05.652Z,8.02
2022-08-19T14:40:33.605Z,8.00
2022-08-19T14:43:05.867Z,8.32
2022-08-19T14:45:37.252Z,7.45
2022-08-19T14:48:12.606Z,7.72
2022-08-19T14:50:47.005Z,8.10
2022-08-19T14:53:14.608Z,7.95
2022-08-19T14:55:44.153Z,7.15
2022-08-19T14:58:29.266Z,8.05
2022-08-19T15:01:00.372Z,7.45
2022-08-19T15:03:28.559Z,7.90
2022-08-19T15:05:59.010Z,7.47
2022-08-19T15:08:27.173Z,7.40
2022-08-19T15:10:54.986Z,7.80
2022-08-19T15:13:22.597Z,8.00
2022-08-19T15:15:50.324Z,8.10
2022-08-19T15:18:18.193Z,8.10
2022-08-19T15:20:46.924Z,7.68
2022-08-19T15:23:19.061Z,8.10
2022-08-19T15:25:46.996Z,8.23
2022-08-19T15:28:16.920Z,7.70
2022-08-19T15:30:44.727Z,8.40
2022-08-19T15:33:15.482Z,8.07
2022-08-19T15:35:44.455Z,8.68
2022-08-19T15:38:14.132Z,7.90
2022-08-19T15:40:42.743Z,8.40
2022-08-19T15:43:10.392Z,8.68
2022-08-19T15:45:38.042Z,8.10
2022-08-19T15:48:06.362Z,8.10
2022-08-19T15:50:34.506Z,7.93
2022-08-19T15:53:06.284Z,8.50
2022-08-19T15:55:37.058Z,8.15
2022-08-19T15:58:28.974Z,8.00
2022-08-19T16:01:20.417Z,7.68
2022-08-19T16:04:14.758Z,7.65
2022-08-19T16:06:50.645Z,8.13
2022-08-19T16:09:26.450Z,7.47
2022-08-19T16:11:57.211Z,7.72
2022-08-19T16:14:31.063Z,7.50
2022-08-19T16:16:58.962Z,8.00
2022-08-19T16:19:26.667Z,8.38
2022-08-19T16:21:55.895Z,7.82
2022-08-19T16:24:26.142Z,7.93
2022-08-19T16:26:54.730Z,7.50
2022-08-19T16:29:34.513Z,7.05
2022-08-19T16:32:10.765Z,7.50
2022-08-19T16:34:40.387Z,8.35
2022-08-19T16:37:08.310Z,8.00
2022-08-19T16:39:36.422Z,8.23
2022-08-19T16:42:07.339Z,7.93
2022-08-19T16:44:36.330Z,7.75
2022-08-19T16:47:04.311Z,7.30
2022-08-19T16:49:53.492Z,8.10
2022-08-19T16:52:21.412Z,8.10
2022-08-19T16:54:49.083Z,7.72
2022-08-19T16:57:17.052Z,7.43
2022-08-19T16:59:49.354Z,7.57
2022-08-19T17:02:23.521Z,7.55
2022-08-19T17:04:58.080Z,8.48
2022-08-19T17:07:33.080Z,8.27
2022-08-19T17:10:02.495Z,8.98
2022-08-19T17:12:32.519Z,9.63
2022-08-19T17:15:02.825Z,9.52
2022-08-19T17:17:31.683Z,8.15
2022-08-19T17:20:00.739Z,9.65
2022-08-19T17:22:28.928Z,10.00
2022-08-19T17:24:57.867Z,8.52
2022-08-19T17:27:31.482Z,8.57
2022-08-19T17:30:03.019Z,8.10
2022-08-19T17:32:35.260Z,8.75
2022-08-19T17:35:04.811Z,11.20
2022-08-19T17:37:33.012Z,15.65
2022-08-19T17:40:07.395Z,12.38
2022-08-19T17:42:36.206Z,9.27
2022-08-19T17:45:05.240Z,8.65
2022-08-19T17:47:34.020Z,8.68
2022-08-19T17:50:01.792Z,8.88
2022-08-19T17:52:29.593Z,8.57
2022-08-19T17:54:57.085Z,9.00
2022-08-19T17:57:24.785Z,8.85
2022-08-19T17:59:52.879Z,8.45
2022-08-19T18:02:22.045Z,8.38
2022-08-19T18:04:50.044Z,9.02
2022-08-19T18:07:21.697Z,9.40
2022-08-19T18:09:54.058Z,8.55
2022-08-19T18:12:27.015Z,8.93
2022-08-19T18:14:54.655Z,9.63
2022-08-19T18:17:23.650Z,9.65
2022-08-19T18:19:51.405Z,8.43
2022-08-19T18:22:28.998Z,8.65
2022-08-19T18:24:58.414Z,9.05
2022-08-19T18:27:28.003Z,8.77
2022-08-19T18:29:59.782Z,8.98
2022-08-19T18:32:38.372Z,9.27
2022-08-19T18:35:12.235Z,9.13
2022-08-19T18:37:42.277Z,8.73
2022-08-19T18:40:31.002Z,9.15
2022-08-19T18:43:14.160Z,9.90
2022-08-19T18:46:01.793Z,10.27
2022-08-19T18:48:48.666Z,13.93
2022-08-19T18:51:17.749Z,11.55
2022-08-19T18:53:47.363Z,10.55
2022-08-19T18:56:17.944Z,9.23
2022-08-19T18:58:46.203Z,9.82
2022-08-19T19:01:25.259Z,9.18
2022-08-19T19:03:54.852Z,9.13
2022-08-19T19:06:36.109Z,9.73
2022-08-19T19:09:04.577Z,9.93
2022-08-19T19:11:34.982Z,10.05
2022-08-19T19:14:06.139Z,10.73
2022-08-19T19:16:33.638Z,10.45
2022-08-19T19:19:01.106Z,11.10
2022-08-19T19:21:31.921Z,11.35
2022-08-19T19:24:02.428Z,11.45
2022-08-19T19:26:30.284Z,11.23
2022-08-19T19:28:58.091Z,11.23
2022-08-19T19:31:27.075Z,10.77
2022-08-19T19:33:56.398Z,12.50
2022-08-19T19:36:24.489Z,11.70
2022-08-19T19:38:52.516Z,11.45
2022-08-19T19:41:25.589Z,11.00
2022-08-19T19:44:16.484Z,11.43
2022-08-19T19:46:43.446Z,11.80
2022-08-19T19:49:11.998Z,11.85
2022-08-19T19:51:41.180Z,11.63
2022-08-19T19:54:19.557Z,11.52
2022-08-19T19:56:50.479Z,11.70
2022-08-19T19:59:18.897Z,11.57
2022-08-19T20:01:46.909Z,11.77
2022-08-19T20:04:16.290Z,11.02
2022-08-19T20:06:45.075Z,11.35
2022-08-19T20:09:19.493Z,11.05
2022-08-19T20:11:56.361Z,11.25
2022-08-19T20:14:28.335Z,11.30
2022-08-19T20:16:56.943Z,10.98
2022-08-19T20:19:34.203Z,10.95
2022-08-19T20:22:01.800Z,11.05
2022-08-19T20:24:32.870Z,11.57
2022-08-19T20:27:01.671Z,10.60
2022-08-19T20:29:39.270Z,11.48
2022-08-19T20:32:10.667Z,10.95
2022-08-19T20:34:39.507Z,10.82
2022-08-19T20:37:09.619Z,11.02
2022-08-19T20:39:37.965Z,10.82
2022-08-19T20:42:05.896Z,10.73
2022-08-19T20:44:33.732Z,10.73
2022-08-19T20:47:03.849Z,11.30
2022-08-19T20:49:32.749Z,11.45
2022-08-19T20:52:00.497Z,10.75
2022-08-19T20:54:28.585Z,10.73
2022-08-19T20:56:56.928Z,10.60
2022-08-19T20:59:26.104Z,11.25
2022-08-19T21:01:53.886Z,10.77
2022-08-19T21:04:22.335Z,10.23
2022-08-19T21:06:51.281Z,10.50
2022-08-19T21:09:19.237Z,10.27
2022-08-19T21:11:47.294Z,10.38
2022-08-19T21:14:14.795Z,10.65
2022-08-19T21:16:42.833Z,10.32
2022-08-19T21:19:10.851Z,10.50
2022-08-19T21:21:38.325Z,9.55
2022-08-19T21:24:06.069Z,9.70
2022-08-19T21:26:33.796Z,9.45
2022-08-19T21:29:01.374Z,9.10
2022-08-19T21:31:29.006Z,9.02
2022-08-19T21:33:56.476Z,9.32
2022-08-19T21:36:24.365Z,9.25
2022-08-19T21:38:51.917Z,8.88
2022-08-19T21:41:19.739Z,8.30
2022-08-19T21:43:47.230Z,8.70
2022-08-19T21:46:14.747Z,8.20
2022-08-19T21:48:42.372Z,8.43
2022-08-19T21:51:10.070Z,8.40
2022-08-19T21:53:37.645Z,8.40
2022-08-19T21:56:09.272Z,7.93
2022-08-19T21:58:36.799Z,8.10
2022-08-19T22:01:07.841Z,7.88
2022-08-19T22:03:37.296Z,7.78
2022-08-19T22:06:05.708Z,7.50
2022-08-19T22:08:33.317Z,7.72
2022-08-19T22:11:01.512Z,7.68
2022-08-19T22:13:39.959Z,7.65
2022-08-19T22:16:09.698Z,7.63
2022-08-19T22:18:37.628Z,7.65
2022-08-19T22:21:11.369Z,7.68
2022-08-19T22:23:44.627Z,7.32
2022-08-19T22:26:14.096Z,8.48
2022-08-19T22:28:42.515Z,7.07
2022-08-19T22:31:11.204Z,7.43
2022-08-19T22:33:39.193Z,7.28
2022-08-19T22:36:08.227Z,7.15
2022-08-19T22:38:37.510Z,6.90
2022-08-19T22:41:07.646Z,7.18
2022-08-19T22:43:37.931Z,6.50
2022-08-19T22:46:17.429Z,7.00
2022-08-19T22:48:46.617Z,6.80
2022-08-19T22:51:33.733Z,6.85
2022-08-19T22:54:01.379Z,6.60
2022-08-19T22:56:30.410Z,7.35
2022-08-19T22:58:58.812Z,6.63
2022-08-19T23:01:30.235Z,6.70
2022-08-19T23:04:00.077Z,7.15
2022-08-19T23:06:34.552Z,6.90
2022-08-19T23:09:07.213Z,6.35
2022-08-19T23:11:41.559Z,7.00
2022-08-19T23:14:11.498Z,7.07
2022-08-19T23:16:39.650Z,6.57
2022-08-19T23:19:10.450Z,6.78
2022-08-19T23:21:40.171Z,6.90
2022-08-19T23:24:07.913Z,6.93
2022-08-19T23:26:36.274Z,6.43
2022-08-19T23:29:24.805Z,6.53
2022-08-19T23:31:52.459Z,6.65
2022-08-19T23:34:19.955Z,6.90
2022-08-19T23:36:48.480Z,6.72
2022-08-19T23:39:16.054Z,6.95
2022-08-19T23:41:43.655Z,6.53
2022-08-19T23:44:14.812Z,6.68
2022-08-19T23:46:54.640Z,6.68
2022-08-19T23:49:24.217Z,7.03
2022-08-19T23:51:52.160Z,6.50
2022-08-19T23:54:19.659Z,6.93
2022-08-19T23:56:47.310Z,6.85
2022-08-19T23:59:14.817Z,6.30
